Rowena, Missouri
Current Conditions -  °F | °C
As of 11:54 PM on Thursday 30 Oct 2014 (Local Time) from KCOU Reporting Station
Clear Clear  
Wind Chill: 41°   Ceiling: Unl
Heat Index: 45°   Visibility: 10mi
Dew Point: 42°   Wind: 7mph
Humidity: 90%   Direction: 350°N
Pressure: 30.08"   Gusts: NA
Location:  39.2043°N, 92.1568°W
Report Text: KCOU 310454Z AUTO 35006KT 10SM CLR 07/06 A3008 RMK AO2 SLP189 T00720056
Loading
Personal Weather Stations






























Interactive Weather Map New forecast layout! Learn more

10-Day Weather Forecast

Advertisements
Track Severe Weather on mobile